.
WxDataArchive / Data Records for 2010-09-28
2010-09-27 September 2010 2010-09-29

Data Records for Tuesday, 28 September 2010

Time	Temp	Chill	HIndex	Humid	Dewpt	 Wind 	HiWind	WindDir	Rain 	Barom 
-----	----	-----	------	-----	-----	------	------	-------	-----	----- 
00:00	52.6	52.6	52.6	96	51.5	0	0	---	0.00	29.805 
00:05	52.6	52.6	52.6	96	51.5	0	0	---	0.00	29.805 
00:10	52.6	52.6	52.6	96	51.5	0	0	---	0.00	29.805 
00:15	52.6	52.6	52.6	96	51.5	0	0	---	0.00	29.803 
00:20	52.6	52.6	52.6	96	51.5	0	0	---	0.00	29.803 
00:25	52.6	52.6	52.6	96	51.5	0	0	---	0.00	29.803 
00:30	52.6	52.6	52.6	96	51.5	0	0	---	0.00	29.791 
00:35	52.6	52.6	52.6	96	51.5	0	1	112	0.00	29.791 
00:40	52.6	52.6	52.6	96	51.5	0	0	---	0.00	29.791 
00:45	52.5	52.5	52.5	96	51.4	0	0	---	0.00	29.789 
00:50	52.5	52.5	52.5	96	51.4	0	0	---	0.00	29.789 
00:55	52.5	52.5	52.5	96	51.4	0	0	---	0.00	29.789 
01:00	52.5	52.5	52.5	96	51.4	0	1	112	0.00	29.783 
01:05	52.3	52.3	52.3	96	51.2	0	0	---	0.00	29.783 
01:10	52.3	52.3	52.3	96	51.2	0	1	112	0.00	29.783 
01:15	52.3	52.3	52.3	96	51.2	0	1	112	0.00	29.773 
01:20	52.2	52.2	52.2	96	51.1	0	2	292	0.00	29.773 
01:25	52.2	52.2	52.2	96	51.1	0	2	292	0.00	29.773 
01:30	52.2	52.2	52.2	96	51.1	0	0	---	0.00	29.762 
01:35	52.2	52.2	52.2	96	51.1	0	1	292	0.00	29.762 
01:40	52.2	52.2	52.2	96	51.1	0	0	---	0.00	29.762 
01:45	52.2	52.2	52.2	96	51.1	0	0	---	0.00	29.761 
01:50	52.2	52.2	52.2	96	51.1	0	1	292	0.00	29.761 
01:55	52.2	52.2	52.2	96	51.1	0	1	292	0.00	29.761 
02:00	52.2	52.2	52.2	96	51.1	0	0	---	0.00	29.757 
02:05	52.2	52.2	52.2	96	51.1	0	1	292	0.00	29.757 
02:10	52.2	52.2	52.2	96	51.1	0	1	292	0.00	29.757 
02:15	52.2	52.2	52.2	96	51.1	0	2	292	0.00	29.754 
02:20	52.2	52.2	52.2	96	51.1	0	1	292	0.00	29.754 
02:25	52.0	52.0	52.0	96	50.9	0	0	---	0.00	29.754 
02:30	51.9	51.9	51.9	96	50.8	0	1	292	0.00	29.746 
02:35	51.9	51.9	51.9	96	50.8	0	0	---	0.00	29.746 
02:40	51.9	51.9	51.9	96	50.8	0	0	---	0.00	29.746 
02:45	51.9	51.9	51.9	96	50.8	0	0	---	0.00	29.740 
02:50	51.9	51.9	51.9	96	50.8	0	0	---	0.00	29.740 
02:55	51.7	51.7	51.7	96	50.6	0	1	292	0.00	29.740 
03:00	51.7	51.7	51.7	96	50.6	0	1	292	0.00	29.726 
03:05	51.7	51.7	51.7	96	50.6	0	1	292	0.00	29.726 
03:10	51.6	51.6	51.6	96	50.5	0	1	292	0.00	29.726 
03:15	51.4	51.4	51.4	96	50.3	0	0	---	0.00	29.723 
03:20	51.4	51.4	51.4	96	50.3	0	1	292	0.00	29.723 
03:25	51.3	51.3	51.3	96	50.2	0	0	---	0.00	29.723 
03:30	51.3	51.3	51.3	96	50.2	0	0	---	0.00	29.715 
03:35	51.3	51.3	51.3	96	50.2	0	0	---	0.00	29.715 
03:40	51.1	51.1	51.1	96	50.0	0	0	---	0.00	29.715 
03:45	51.3	51.3	51.3	96	50.2	0	0	---	0.00	29.714 
03:50	51.3	51.3	51.3	96	50.2	0	0	---	0.00	29.714 
03:55	51.3	51.3	51.3	96	50.2	0	0	---	0.00	29.714 
04:00	51.3	51.3	51.3	96	50.2	0	0	---	0.00	29.714 
04:05	51.3	51.3	51.3	96	50.2	0	0	---	0.00	29.714 
04:10	51.4	51.4	51.4	96	50.3	0	1	292	0.00	29.714 
04:15	51.4	51.4	51.4	96	50.3	0	1	292	0.00	29.712 
04:20	51.4	51.4	51.4	96	50.3	0	1	292	0.00	29.712 
04:25	51.4	51.4	51.4	96	50.3	0	1	292	0.00	29.712 
04:30	51.6	51.6	51.6	96	50.5	0	0	---	0.00	29.708 
04:35	51.6	51.6	51.6	96	50.5	0	2	292	0.00	29.708 
04:40	51.6	51.6	51.6	96	50.5	0	2	292	0.00	29.708 
04:45	51.6	51.6	51.6	96	50.5	0	2	292	0.00	29.707 
04:50	51.6	51.6	51.6	96	50.5	0	2	292	0.00	29.707 
04:55	51.6	51.6	51.6	96	50.5	0	1	292	0.00	29.707 
05:00	51.6	51.6	51.6	96	50.5	0	2	292	0.00	29.710 
05:05	51.6	51.6	51.6	96	50.5	0	1	292	0.00	29.710 
05:10	51.6	51.6	51.6	96	50.5	0	1	292	0.00	29.710 
05:15	51.6	51.6	51.6	96	50.5	0	1	292	0.00	29.709 
05:20	51.6	51.6	51.6	96	50.5	0	0	---	0.00	29.709 
05:25	51.6	51.6	51.6	96	50.5	0	1	292	0.00	29.709 
05:30	51.7	51.7	51.7	96	50.6	0	1	292	0.00	29.711 
05:35	51.7	51.7	51.7	96	50.6	0	0	---	0.00	29.711 
05:40	51.7	51.7	51.7	96	50.6	0	1	292	0.00	29.711 
05:45	51.7	51.7	51.7	96	50.6	0	0	---	0.00	29.710 
05:50	51.7	51.7	51.7	96	50.6	0	1	292	0.00	29.710 
05:55	51.7	51.7	51.7	96	50.6	0	0	---	0.00	29.710 
06:00	51.7	51.7	51.7	96	50.6	0	0	---	0.00	29.713 
06:05	51.9	51.9	51.9	96	50.8	0	0	---	0.00	29.713 
06:10	51.9	51.9	51.9	96	50.8	0	1	292	0.00	29.713 
06:15	51.9	51.9	51.9	96	50.8	0	1	292	0.00	29.716 
06:20	51.9	51.9	51.9	96	50.8	0	1	292	0.00	29.716 
06:25	51.9	51.9	51.9	96	50.8	0	1	292	0.00	29.716 
06:30	51.7	51.7	51.7	95	50.3	0	1	292	0.00	29.715 
06:35	51.7	51.7	51.7	96	50.6	0	2	292	0.00	29.715 
06:40	51.7	51.7	51.7	95	50.3	0	1	292	0.00	29.715 
06:45	51.7	51.7	51.7	96	50.6	0	1	292	0.00	29.710 
06:50	51.7	51.7	51.7	95	50.3	0	1	292	0.00	29.710 
06:55	51.7	51.7	51.7	95	50.3	0	1	292	0.00	29.710 
07:00	51.7	51.7	51.7	95	50.3	0	0	---	0.00	29.705 
07:05	51.7	51.7	51.7	95	50.3	0	1	292	0.00	29.705 
07:10	51.7	51.7	51.7	95	50.3	0	1	292	0.00	29.705 
07:15	51.9	51.9	51.9	95	50.5	0	1	292	0.00	29.709 
07:20	51.7	51.7	51.7	95	50.3	0	2	292	0.00	29.709 
07:25	51.9	51.9	51.9	95	50.5	0	1	292	0.00	29.709 
07:30	51.7	51.7	51.7	95	50.3	0	2	292	0.00	29.714 
07:35	51.9	51.9	51.9	95	50.5	0	2	292	0.00	29.714 
07:40	51.9	51.9	51.9	95	50.5	0	1	292	0.00	29.714 
07:45	51.9	51.9	51.9	95	50.5	0	2	292	0.00	29.721 
07:50	51.9	51.9	51.9	95	50.5	0	1	292	0.00	29.721 
07:55	51.9	51.9	51.9	95	50.5	0	3	292	0.00	29.721 
08:00	52.0	52.0	52.0	95	50.6	1	2	292	0.00	29.718 
08:05	52.0	52.0	52.0	95	50.6	1	2	292	0.00	29.718 
08:10	52.0	52.0	52.0	95	50.6	0	2	292	0.00	29.718 
08:15	52.0	52.0	52.0	95	50.6	0	2	292	0.00	29.717 
08:20	52.2	52.2	52.2	95	50.8	0	1	292	0.00	29.717 
08:25	52.2	52.2	52.2	95	50.8	0	1	292	0.00	29.717 
08:30	52.2	52.2	52.2	95	50.8	1	2	292	0.00	29.721 
08:35	52.2	52.2	52.2	95	50.8	0	2	292	0.00	29.721 
08:40	52.3	52.3	52.3	95	50.9	0	2	292	0.00	29.721 
08:45	52.3	52.3	52.3	95	50.9	0	2	292	0.00	29.723 
08:50	52.3	52.3	52.3	95	50.9	0	1	292	0.00	29.723 
08:55	52.5	52.5	52.5	95	51.1	0	2	292	0.00	29.723 
09:00	52.5	52.5	52.5	95	51.1	0	2	292	0.00	29.724 
09:05	52.5	52.5	52.5	95	51.1	0	1	292	0.00	29.724 
09:10	52.6	52.6	52.6	95	51.2	0	2	292	0.00	29.724 
09:15	52.6	52.6	52.6	95	51.2	0	2	292	0.00	29.728 
09:20	52.8	52.8	52.8	95	51.4	0	1	292	0.00	29.728 
09:25	52.9	52.9	52.9	95	51.5	0	2	292	0.00	29.728 
09:30	52.9	52.9	52.9	95	51.5	0	1	292	0.00	29.732 
09:35	52.9	52.9	52.9	94	51.2	0	1	292	0.00	29.732 
09:40	53.1	53.1	53.1	94	51.4	0	1	292	0.00	29.732 
09:45	53.1	53.1	53.1	94	51.4	0	1	292	0.00	29.733 
09:50	53.1	53.1	53.1	94	51.4	0	2	292	0.00	29.733 
09:55	53.2	53.2	53.2	94	51.5	0	1	292	0.00	29.733 
10:00	53.2	53.2	53.2	94	51.5	0	1	292	0.00	29.733 
10:05	53.3	53.3	53.3	94	51.6	1	3	292	0.00	29.733 
10:10	53.3	53.3	53.3	93	51.3	1	3	292	0.00	29.733 
10:15	53.5	53.5	53.5	93	51.5	0	2	292	0.00	29.738 
10:20	53.5	53.5	53.5	93	51.5	0	2	292	0.00	29.738 
10:25	53.6	53.6	53.6	93	51.6	0	1	292	0.00	29.738 
10:30	53.8	53.8	53.8	93	51.8	0	1	292	0.00	29.742 
10:35	53.8	53.8	53.8	92	51.5	0	2	292	0.00	29.742 
10:40	53.8	53.8	53.8	92	51.5	1	3	292	0.00	29.742 
10:45	53.9	53.9	53.9	92	51.6	1	3	292	0.00	29.745 
10:50	54.1	54.1	54.1	92	51.8	0	1	292	0.00	29.745 
10:55	54.2	54.2	54.2	92	51.9	0	2	292	0.00	29.745 
11:00	54.4	54.4	54.4	91	51.8	0	2	292	0.00	29.749 
11:05	54.2	54.2	54.2	91	51.6	1	2	292	0.00	29.749 
11:10	54.2	54.2	54.2	91	51.6	0	2	22	0.00	29.749 
11:15	54.4	54.4	54.4	90	51.5	0	2	22	0.00	29.758 
11:20	54.5	54.5	54.5	90	51.6	0	3	22	0.00	29.758 
11:25	54.5	54.5	54.5	89	51.3	1	4	270	0.00	29.758 
11:30	54.5	54.5	54.5	88	51.0	0	2	0	0.00	29.761 
11:35	54.5	54.5	54.5	88	51.0	1	3	292	0.00	29.761 
11:40	54.5	54.5	54.5	88	51.0	0	3	292	0.00	29.761 
11:45	54.7	54.7	54.7	87	50.9	0	2	315	0.00	29.762 
11:50	55.0	55.0	55.0	87	51.2	0	2	315	0.00	29.762 
11:55	55.1	55.1	55.1	86	51.0	1	3	315	0.00	29.762 
12:00	55.3	55.3	55.3	86	51.2	1	4	315	0.00	29.762 
12:05	55.4	55.4	55.4	85	51.0	1	4	270	0.00	29.762 
12:10	55.6	55.6	55.6	84	50.8	0	1	270	0.00	29.762 
12:15	55.7	55.7	55.7	84	50.9	1	3	292	0.00	29.762 
12:20	56.0	56.0	56.0	84	51.2	0	1	292	0.00	29.762 
12:25	56.2	56.2	56.2	82	50.8	1	5	292	0.00	29.762 
12:30	56.6	56.6	56.6	82	51.2	1	4	315	0.00	29.757 
12:35	56.9	56.9	56.9	80	50.8	1	3	338	0.00	29.757 
12:40	57.2	57.2	57.2	78	50.4	1	3	338	0.00	29.757 
12:45	57.6	57.6	57.6	78	50.8	1	5	292	0.00	29.756 
12:50	58.0	58.0	58.0	75	50.1	2	5	292	0.00	29.756 
12:55	58.4	58.4	58.4	73	49.8	2	5	270	0.00	29.756 
13:00	58.7	58.7	58.7	73	50.1	1	4	248	0.00	29.750 
13:05	58.7	58.7	58.7	72	49.7	1	4	248	0.00	29.750 
13:10	58.7	58.7	58.7	72	49.7	1	3	315	0.00	29.750 
13:15	58.6	58.6	58.6	72	49.6	1	3	315	0.00	29.755 
13:20	58.6	58.6	58.6	72	49.6	2	4	270	0.00	29.755 
13:25	58.4	58.4	58.4	73	49.8	1	4	292	0.00	29.755 
13:30	58.6	58.6	58.6	72	49.6	2	6	292	0.00	29.756 
13:35	58.7	58.7	58.7	71	49.3	2	5	292	0.00	29.756 
13:40	58.9	58.9	58.9	71	49.5	1	3	292	0.00	29.756 
13:45	59.0	59.0	59.0	69	48.8	1	5	292	0.00	29.753 
13:50	59.0	59.0	59.0	68	48.5	2	6	315	0.00	29.753 
13:55	59.0	59.0	59.0	68	48.5	2	4	292	0.00	29.753 
14:00	59.2	59.2	59.2	68	48.6	1	4	292	0.00	29.753 
14:05	59.6	59.6	59.6	69	49.4	1	2	292	0.00	29.753 
14:10	59.9	59.9	59.9	67	48.9	1	4	338	0.00	29.753 
14:15	60.1	60.1	60.1	67	49.1	2	3	315	0.00	29.747 
14:20	60.1	60.1	60.1	69	49.9	1	4	292	0.00	29.747 
14:25	60.2	60.2	60.2	66	48.8	1	5	292	0.00	29.747 
14:30	59.9	59.9	59.9	67	48.9	2	4	338	0.00	29.750 
14:35	60.1	60.1	60.1	66	48.7	2	5	270	0.00	29.750 
14:40	60.5	60.5	60.5	65	48.7	2	5	315	0.00	29.750 
14:45	61.0	61.0	61.0	65	49.1	0	2	270	0.00	29.749 
14:50	61.3	61.3	61.3	66	49.8	1	3	0	0.00	29.749 
14:55	61.8	61.8	61.8	64	49.5	1	4	292	0.00	29.749 
15:00	61.8	61.8	61.8	63	49.1	2	4	338	0.00	29.746 
15:05	61.6	61.6	61.6	61	48.0	2	5	315	0.00	29.746 
15:10	61.6	61.6	61.6	62	48.4	1	5	270	0.00	29.746 
15:15	61.6	61.6	61.6	60	47.6	1	3	292	0.00	29.743 
15:20	61.5	61.5	61.5	61	47.9	2	5	292	0.00	29.743 
15:25	61.3	61.3	61.3	60	47.3	2	4	315	0.00	29.743 
15:30	61.3	61.3	61.3	58	46.4	2	5	315	0.00	29.742 
15:35	61.6	61.6	61.6	58	46.7	1	3	315	0.00	29.742 
15:40	62.0	62.0	62.0	57	46.6	1	3	315	0.00	29.742 
15:45	62.1	62.1	62.1	58	47.1	1	4	315	0.00	29.741 
15:50	62.3	62.3	62.3	55	45.9	1	3	315	0.00	29.741 
15:55	62.3	62.3	62.3	56	46.4	1	3	315	0.00	29.741 
16:00	62.3	62.3	62.3	54	45.4	1	4	270	0.00	29.743 
16:05	62.3	62.3	62.3	54	45.4	1	4	292	0.00	29.743 
16:10	62.3	62.3	62.3	55	45.9	0	2	292	0.00	29.743 
16:15	62.3	62.3	62.3	55	45.9	1	3	292	0.00	29.741 
16:20	62.3	62.3	62.3	56	46.4	0	2	292	0.00	29.741 
16:25	62.4	62.4	62.4	56	46.5	0	2	292	0.00	29.741 
16:30	62.6	62.6	62.6	57	47.1	1	3	292	0.00	29.743 
16:35	62.6	62.6	62.6	57	47.1	1	3	292	0.00	29.743 
16:40	62.6	62.6	62.6	57	47.1	0	2	292	0.00	29.743 
16:45	62.7	62.7	62.7	54	45.8	1	6	338	0.00	29.744 
16:50	63.1	63.1	63.1	53	45.7	1	3	315	0.00	29.744 
16:55	63.2	63.2	63.2	52	45.3	2	4	270	0.00	29.744 
17:00	63.2	63.2	63.2	51	44.8	1	6	270	0.00	29.745 
17:05	63.4	63.4	63.4	52	45.5	0	1	270	0.00	29.745 
17:10	63.7	63.7	63.7	51	45.2	0	2	270	0.00	29.745 
17:15	63.9	63.9	63.9	51	45.4	0	3	270	0.00	29.745 
17:20	63.9	63.9	63.9	50	44.9	0	1	270	0.00	29.745 
17:25	63.7	63.7	63.7	50	44.7	0	1	270	0.00	29.745 
17:30	63.7	63.7	63.7	53	46.2	0	1	270	0.00	29.749 
17:35	63.9	63.9	63.9	54	46.9	0	1	270	0.00	29.749 
17:40	64.0	64.0	64.0	51	45.5	0	2	270	0.00	29.749 
17:45	64.2	64.2	64.2	50	45.2	1	3	292	0.00	29.754 
17:50	64.2	64.2	64.2	52	46.2	0	1	292	0.00	29.754 
17:55	64.2	64.2	64.2	52	46.2	0	1	292	0.00	29.754 
18:00	64.2	64.2	64.2	52	46.2	0	2	292	0.00	29.756 
18:05	64.2	64.2	64.2	53	46.7	0	1	292	0.00	29.756 
18:10	64.2	64.2	64.2	51	45.7	0	1	292	0.00	29.756 
18:15	64.0	64.0	64.0	52	46.0	0	2	292	0.00	29.761 
18:20	64.0	64.0	64.0	51	45.5	0	1	248	0.00	29.761 
18:25	63.9	63.9	63.9	49	44.4	0	1	292	0.00	29.761 
18:30	63.9	63.9	63.9	48	43.8	0	1	292	0.00	29.766 
18:35	63.9	63.9	63.9	49	44.4	0	2	292	0.00	29.766 
18:40	63.9	63.9	63.9	49	44.4	0	0	---	0.00	29.766 
18:45	63.7	63.7	63.7	50	44.7	0	0	---	0.00	29.770 
18:50	63.4	63.4	63.4	51	45.0	0	0	---	0.00	29.770 
18:55	63.2	63.2	63.2	53	45.8	0	0	---	0.00	29.770 
19:00	62.9	62.9	62.9	54	46.0	0	0	---	0.00	29.772 
19:05	62.4	62.4	62.4	54	45.5	0	0	---	0.00	29.772 
19:10	62.1	62.1	62.1	56	46.2	0	0	---	0.00	29.772 
19:15	61.8	61.8	61.8	57	46.4	0	0	---	0.00	29.775 
19:20	61.3	61.3	61.3	59	46.8	0	0	---	0.00	29.775 
19:25	60.9	60.9	60.9	61	47.4	0	0	---	0.00	29.775 
19:30	60.4	60.4	60.4	61	46.9	0	0	---	0.00	29.787 
19:35	59.8	59.8	59.8	61	46.3	0	0	---	0.00	29.787 
19:40	59.2	59.2	59.2	63	46.6	0	0	---	0.00	29.787 
19:45	58.6	58.6	58.6	65	46.9	0	0	---	0.00	29.793 
19:50	58.1	58.1	58.1	66	46.8	0	0	---	0.00	29.793 
19:55	57.5	57.5	57.5	67	46.6	0	0	---	0.00	29.793 
20:00	57.0	57.0	57.0	69	46.9	0	0	---	0.00	29.801 
20:05	56.6	56.6	56.6	71	47.3	0	0	---	0.00	29.801 
20:10	56.2	56.2	56.2	73	47.7	0	0	---	0.00	29.801 
20:15	55.7	55.7	55.7	73	47.2	0	0	---	0.00	29.808 
20:20	55.3	55.3	55.3	74	47.2	0	0	---	0.00	29.808 
20:25	55.0	55.0	55.0	75	47.2	0	0	---	0.00	29.808 
20:30	54.7	54.7	54.7	76	47.3	0	0	---	0.00	29.810 
20:35	54.4	54.4	54.4	77	47.3	0	0	---	0.00	29.810 
20:40	54.1	54.1	54.1	79	47.7	0	0	---	0.00	29.810 
20:45	53.8	53.8	53.8	80	47.8	0	0	---	0.00	29.818 
20:50	53.6	53.6	53.6	81	47.9	0	0	---	0.00	29.818 
20:55	53.3	53.3	53.3	81	47.6	0	0	---	0.00	29.818 
21:00	53.1	53.1	53.1	81	47.4	0	0	---	0.00	29.824 
21:05	52.8	52.8	52.8	82	47.5	0	0	---	0.00	29.824 
21:10	52.6	52.6	52.6	82	47.3	0	0	---	0.00	29.824 
21:15	52.3	52.3	52.3	83	47.3	0	0	---	0.00	29.830 
21:20	52.0	52.0	52.0	83	47.0	0	0	---	0.00	29.830 
21:25	51.9	51.9	51.9	84	47.2	0	0	---	0.00	29.830 
21:30	51.6	51.6	51.6	84	46.9	0	0	---	0.00	29.832 
21:35	51.4	51.4	51.4	84	46.7	0	0	---	0.00	29.832 
21:40	51.3	51.3	51.3	85	46.9	0	0	---	0.00	29.832 
21:45	51.1	51.1	51.1	86	47.1	0	0	---	0.00	29.834 
21:50	51.0	51.0	51.0	86	47.0	0	0	---	0.00	29.834 
21:55	50.7	50.7	50.7	86	46.7	0	0	---	0.00	29.834 
22:00	50.5	50.5	50.5	87	46.8	0	0	---	0.00	29.838 
22:05	50.4	50.4	50.4	87	46.7	0	0	---	0.00	29.838 
22:10	50.2	50.2	50.2	87	46.5	0	0	---	0.00	29.838 
22:15	50.1	50.1	50.1	88	46.7	0	0	---	0.00	29.842 
22:20	49.9	49.9	49.9	88	46.5	0	0	---	0.00	29.842 
22:25	49.8	49.8	49.8	88	46.4	0	0	---	0.00	29.842 
22:30	49.5	49.5	49.5	88	46.1	0	0	---	0.00	29.844 
22:35	49.4	49.4	49.4	88	46.0	0	0	---	0.00	29.844 
22:40	49.2	49.2	49.2	88	45.8	0	0	---	0.00	29.844 
22:45	49.1	49.1	49.1	89	46.0	0	0	---	0.00	29.849 
22:50	48.9	48.9	48.9	89	45.8	0	0	---	0.00	29.849 
22:55	48.8	48.8	48.8	89	45.7	0	0	---	0.00	29.849 
23:00	48.6	48.6	48.6	89	45.5	0	0	---	0.00	29.855 
23:05	48.5	48.5	48.5	90	45.7	0	0	---	0.00	29.855 
23:10	48.3	48.3	48.3	90	45.5	0	0	---	0.00	29.855 
23:15	48.0	48.0	48.0	90	45.2	0	0	---	0.00	29.854 
23:20	47.9	47.9	47.9	90	45.1	0	0	---	0.00	29.854 
23:25	47.7	47.7	47.7	90	44.9	0	0	---	0.00	29.854 
23:30	47.6	47.6	47.6	90	44.8	0	0	---	0.00	29.850 
23:35	47.4	47.4	47.4	91	44.9	0	0	---	0.00	29.850 
23:40	47.3	47.3	47.3	91	44.8	0	0	---	0.00	29.850 
23:45	47.1	47.1	47.1	91	44.6	0	0	---	0.00	29.858 
23:50	47.1	47.1	47.1	92	44.9	0	0	---	0.00	29.858 
23:55	47.0	47.0	47.0	92	44.8	0	0	---	0.00	29.858 

CoCoRaHS
IN-AL-39
A2 Web Hosting
Creative Commons License
GoDaddy
search engine by freefind advanced

loaded 2018-11-15 04:12:24 • last modified 2010-11-18 10:43:29
Privacy PolicyDisclaimer
• wx.awcolley.com is powered by PmWiki v.2002016 •
• all content (unless otherwise noted) © 2018 A W Colley